Time;durP1;ratioP1;P1;durP2;ratioP2;P2;SDS_P1;SDS_P2;PMS_P1;PMS_P2;Temp;Humidity;BMP_temperature;BMP_pressure;BME280_temperature;BME280_humidity;BME280_pressure;Samples;Min_cycle;Max_cycle;Signal;HPM_P1;HPM_P2
2021/07/02 00:00:59;;;;;;;0.43;0.43;;;13.20;99.90;13.10;96812.00;;;;5085025;28;20219;-64
2021/07/02 00:03:48;;;;;;;0.50;0.50;;;13.30;99.90;13.10;96799.00;;;;5086063;28;20326;-63
2021/07/02 00:06:37;;;;;;;1.20;0.87;;;13.30;99.90;13.00;96798.00;;;;5086577;28;20488;-63
2021/07/02 00:09:26;;;;;;;0.50;0.40;;;13.30;99.90;12.70;96788.00;;;;5076056;28;20200;-64
2021/07/02 00:12:15;;;;;;;0.53;0.53;;;13.30;99.90;12.40;96792.00;;;;5083707;28;20219;-63
2021/07/02 00:15:07;;;;;;;0.70;0.70;;;13.20;99.90;12.50;96788.00;;;;5085157;28;20210;-61
2021/07/02 00:17:55;;;;;;;1.17;0.80;;;13.10;99.90;12.60;96787.00;;;;5085735;28;20493;-62
2021/07/02 00:20:44;;;;;;;0.70;0.50;;;13.00;99.90;12.70;96786.00;;;;5085247;28;20218;-62
2021/07/02 00:23:34;;;;;;;0.60;0.50;;;13.00;99.90;12.70;96782.00;;;;5084849;28;20203;-61
2021/07/02 00:26:23;;;;;;;0.60;0.60;;;13.10;99.90;12.50;96778.00;;;;5086289;28;20551;-62
2021/07/02 00:29:12;;;;;;;0.70;0.70;;;13.00;99.90;12.60;96790.00;;;;5086453;28;20579;-62
2021/07/02 00:32:02;;;;;;;1.60;0.80;;;13.00;99.90;12.20;96779.00;;;;5080367;28;20227;-63
2021/07/02 00:34:51;;;;;;;2.27;0.60;;;13.00;99.90;11.90;96767.00;;;;5085601;28;20573;-63
2021/07/02 00:37:40;;;;;;;1.57;0.80;;;12.80;99.90;11.90;96762.00;;;;5085259;28;20206;-62
2021/07/02 00:40:29;;;;;;;1.03;0.70;;;12.60;99.90;12.20;96768.00;;;;5085760;28;20238;-62
2021/07/02 00:43:18;;;;;;;0.70;0.70;;;12.60;99.90;12.60;96778.00;;;;5084403;28;20212;-61
2021/07/02 00:46:07;;;;;;;2.03;0.70;;;12.70;99.90;12.00;96775.00;;;;5084970;28;20710;-63
2021/07/02 00:48:57;;;;;;;1.07;0.97;;;12.70;99.90;12.20;96779.00;;;;5085321;28;20200;-63
2021/07/02 00:51:46;;;;;;;0.80;0.80;;;12.60;99.90;12.40;96776.00;;;;5085374;28;20223;-62
2021/07/02 00:54:37;;;;;;;0.67;0.60;;;12.70;99.90;12.60;96769.00;;;;5085443;28;20210;-61
2021/07/02 00:57:27;;;;;;;3.00;0.90;;;12.80;99.90;12.70;96767.00;;;;5076019;28;20203;-62
2021/07/02 01:00:17;;;;;;;5.97;0.87;;;12.90;99.90;12.60;96760.00;;;;5085024;28;20219;-62
2021/07/02 01:03:06;;;;;;;0.80;0.80;;;12.90;99.90;12.50;96756.00;;;;5084659;28;20230;-62
2021/07/02 01:05:57;;;;;;;5.47;0.70;;;13.00;99.90;12.40;96751.00;;;;5074394;28;20207;-62
2021/07/02 01:08:46;;;;;;;2.33;0.50;;;12.90;99.90;12.30;96741.00;;;;5082812;28;20196;-61
2021/07/02 01:11:35;;;;;;;0.90;0.80;;;12.80;99.90;12.20;96749.00;;;;5078479;28;20241;-62
2021/07/02 01:14:25;;;;;;;1.03;0.77;;;12.80;99.90;12.40;96752.00;;;;5076092;28;20567;-63
2021/07/02 01:17:14;;;;;;;0.87;0.70;;;12.80;99.90;12.10;96751.00;;;;5083749;28;20210;-63
2021/07/02 01:20:04;;;;;;;3.60;0.90;;;12.80;99.90;12.20;96747.00;;;;5084323;28;20223;-62
2021/07/02 01:22:57;;;;;;;2.37;0.50;;;12.70;99.90;12.10;96761.00;;;;5085801;28;20234;-61
2021/07/02 01:25:48;;;;;;;0.60;0.60;;;12.70;99.90;12.10;96767.00;;;;5084498;28;20203;-62
2021/07/02 01:28:37;;;;;;;0.90;0.63;;;12.60;99.90;12.20;96759.00;;;;5085359;28;20576;-61
2021/07/02 01:31:26;;;;;;;0.97;0.70;;;12.60;99.90;12.20;96758.00;;;;5084762;28;20219;-61
2021/07/02 01:34:15;;;;;;;0.80;0.60;;;12.60;99.90;12.20;96753.00;;;;5075187;28;20199;-62
2021/07/02 01:37:05;;;;;;;1.23;0.80;;;12.60;99.90;12.00;96752.00;;;;5084746;28;20209;-62
2021/07/02 01:39:55;;;;;;;0.97;0.73;;;12.60;99.90;11.90;96753.00;;;;5075186;28;20222;-62
2021/07/02 01:42:44;;;;;;;0.83;0.70;;;12.50;99.90;11.80;96756.00;;;;5085992;28;20227;-62
2021/07/02 01:45:33;;;;;;;1.67;1.00;;;12.40;99.90;11.90;96757.00;;;;5076631;28;20221;-63
2021/07/02 01:48:22;;;;;;;0.73;0.73;;;12.40;99.90;12.00;96754.00;;;;5087396;28;20208;-63
2021/07/02 01:51:12;;;;;;;1.10;0.60;;;12.40;99.90;12.20;96753.00;;;;5087641;28;20241;-63
2021/07/02 01:54:00;;;;;;;0.70;0.70;;;12.50;99.90;12.30;96746.00;;;;5091392;28;20206;-63
2021/07/02 01:56:52;;;;;;;0.90;0.70;;;12.50;99.90;12.20;96734.00;;;;5092521;28;20207;-62
2021/07/02 01:59:40;;;;;;;0.93;0.90;;;12.60;99.90;12.30;96740.00;;;;5086470;28;20210;-64
2021/07/02 02:02:31;;;;;;;0.67;0.67;;;12.60;99.90;12.40;96750.00;;;;5088353;28;20223;-63
2021/07/02 02:05:20;;;;;;;1.10;1.00;;;12.70;99.90;12.30;96757.00;;;;5088789;28;20203;-62
2021/07/02 02:08:09;;;;;;;2.10;1.00;;;12.70;99.90;12.50;96746.00;;;;5088881;28;20207;-62
2021/07/02 02:10:58;;;;;;;0.93;0.70;;;12.70;99.90;12.30;96751.00;;;;5075934;28;20202;-63
2021/07/02 02:13:49;;;;;;;0.80;0.80;;;12.80;99.90;12.10;96753.00;;;;5086655;28;20199;-63
2021/07/02 02:16:40;;;;;;;0.77;0.77;;;12.70;99.90;12.10;96744.00;;;;5082397;28;20203;-61
2021/07/02 02:19:29;;;;;;;0.63;0.60;;;12.70;99.90;12.10;96741.00;;;;5085500;28;20215;-61
2021/07/02 02:22:18;;;;;;;2.90;0.80;;;12.60;99.90;12.30;96748.00;;;;5099101;28;20234;-63
2021/07/02 02:25:10;;;;;;;0.70;0.70;;;12.60;99.90;12.40;96748.00;;;;5087718;28;20202;-62
2021/07/02 02:28:00;;;;;;;0.70;0.70;;;12.70;99.90;12.20;96761.00;;;;5087776;28;20207;-62
2021/07/02 02:30:50;;;;;;;2.00;0.87;;;12.70;99.90;12.10;96761.00;;;;5088297;28;20216;-63
2021/07/02 02:33:39;;;;;;;1.03;0.70;;;12.70;99.90;12.00;96752.00;;;;5087982;28;20207;-63
2021/07/02 02:36:28;;;;;;;1.33;1.13;;;12.60;99.90;11.90;96744.00;;;;5087727;28;20705;-62
2021/07/02 02:39:17;;;;;;;1.60;0.87;;;12.50;99.90;12.00;96748.00;;;;5075759;28;20199;-62
2021/07/02 02:42:07;;;;;;;0.77;0.77;;;12.50;99.90;12.10;96744.00;;;;5088078;28;20227;-61
2021/07/02 02:44:55;;;;;;;1.43;0.70;;;12.50;99.90;12.20;96730.00;;;;5087560;28;20210;-63
2021/07/02 02:47:46;;;;;;;0.60;0.60;;;12.60;99.90;12.30;96721.00;;;;5087303;28;20238;-61
2021/07/02 02:50:35;;;;;;;2.73;0.70;;;12.60;99.90;12.20;96740.00;;;;5091738;28;20198;-63
2021/07/02 02:53:24;;;;;;;1.13;0.60;;;12.60;99.90;12.20;96744.00;;;;5097513;28;20686;-63
2021/07/02 02:56:13;;;;;;;1.43;0.70;;;12.60;99.90;12.20;96742.00;;;;5085908;28;20203;-62
2021/07/02 02:59:04;;;;;;;1.43;1.33;;;12.60;99.90;12.30;96745.00;;;;5087387;28;20213;-62
2021/07/02 03:01:52;;;;;;;1.27;1.20;;;12.60;99.90;12.50;96753.00;;;;5086023;28;20234;-63
2021/07/02 03:04:43;;;;;;;1.03;0.80;;;12.70;99.90;12.70;96756.00;;;;5087352;28;20199;-63
2021/07/02 03:07:32;;;;;;;1.30;1.20;;;12.80;99.90;12.70;96753.00;;;;5087501;28;20207;-62
2021/07/02 03:10:20;;;;;;;1.03;0.93;;;12.90;99.90;12.70;96757.00;;;;5071659;28;20204;-63
2021/07/02 03:13:09;;;;;;;0.93;0.80;;;12.90;99.90;12.80;96760.00;;;;5087450;28;20245;-62
2021/07/02 03:15:58;;;;;;;0.77;0.70;;;13.00;99.90;12.80;96764.00;;;;5080792;28;20754;-63
2021/07/02 03:18:47;;;;;;;1.77;1.23;;;13.10;99.90;12.90;96767.00;;;;5087992;28;20203;-61
2021/07/02 03:21:37;;;;;;;1.27;1.03;;;13.10;99.90;12.80;96754.00;;;;5105225;28;20230;-63
2021/07/02 03:24:27;;;;;;;2.00;0.90;;;13.10;99.90;12.90;96762.00;;;;5106442;28;20194;-63
2021/07/02 03:27:16;;;;;;;1.10;1.00;;;13.20;99.90;12.90;96751.00;;;;5106890;28;20210;-61
2021/07/02 03:30:07;;;;;;;0.77;0.77;;;13.20;99.90;13.00;96752.00;;;;5091369;28;20210;-61
2021/07/02 03:32:56;;;;;;;1.10;1.00;;;13.20;99.90;13.10;96750.00;;;;5106848;28;20693;-63
2021/07/02 03:35:45;;;;;;;0.80;0.80;;;13.30;99.90;12.90;96749.00;;;;5106013;28;20210;-63
2021/07/02 03:38:35;;;;;;;1.17;1.10;;;13.30;99.90;12.90;96747.00;;;;5106437;28;20202;-63
2021/07/02 03:41:24;;;;;;;1.20;1.00;;;13.30;99.90;12.90;96754.00;;;;5106506;28;20683;-62
2021/07/02 03:44:14;;;;;;;1.43;1.20;;;13.30;99.90;13.10;96756.00;;;;5106409;28;20198;-63
2021/07/02 03:47:04;;;;;;;1.00;0.90;;;13.30;99.90;13.20;96757.00;;;;5106893;28;20294;-63
2021/07/02 03:49:53;;;;;;;1.33;1.10;;;13.40;99.90;13.00;96757.00;;;;5105955;28;20209;-61
2021/07/02 03:52:42;;;;;;;2.80;1.17;;;13.40;99.90;13.10;96748.00;;;;5106183;28;20222;-59
2021/07/02 03:55:32;;;;;;;1.20;0.93;;;13.40;99.90;13.00;96758.00;;;;5104500;28;20202;-61
2021/07/02 03:58:21;;;;;;;1.00;0.90;;;13.40;99.90;13.20;96749.00;;;;5107452;28;20194;-64
2021/07/02 04:01:10;;;;;;;1.50;1.40;;;13.50;99.90;13.30;96750.00;;;;5106501;28;20218;-61
2021/07/02 04:03:59;;;;;;;1.37;1.23;;;13.50;99.90;13.10;96749.00;;;;5106120;28;20791;-63
2021/07/02 04:06:49;;;;;;;1.90;1.00;;;13.50;99.90;13.10;96746.00;;;;5105374;28;20190;-63
2021/07/02 04:09:39;;;;;;;1.70;0.80;;;13.50;99.90;13.30;96748.00;;;;5104908;28;20199;-63
2021/07/02 04:12:29;;;;;;;2.77;1.07;;;13.60;99.90;13.30;96750.00;;;;5105481;28;20219;-64
2021/07/02 04:15:18;;;;;;;1.17;1.00;;;13.60;99.90;13.40;96739.00;;;;5105883;28;20199;-62
2021/07/02 04:18:08;;;;;;;1.50;1.30;;;13.60;99.90;13.50;96753.00;;;;5105721;28;20210;-61
2021/07/02 04:20:57;;;;;;;1.10;1.00;;;13.70;99.90;13.50;96751.00;;;;5105065;28;20331;-63
2021/07/02 04:23:46;;;;;;;0.90;0.90;;;13.70;99.90;13.60;96756.00;;;;5105099;28;20206;-63
2021/07/02 04:26:35;;;;;;;1.40;1.30;;;13.80;99.90;13.40;96753.00;;;;5104277;28;20226;-64
2021/07/02 04:29:26;;;;;;;2.20;0.93;;;13.80;99.90;13.40;96751.00;;;;5105104;28;20220;-61
2021/07/02 04:32:15;;;;;;;0.80;0.70;;;13.80;99.90;13.20;96752.00;;;;5092166;28;20693;-61
2021/07/02 04:35:09;;;;;;;1.73;1.20;;;13.70;99.90;13.30;96745.00;;;;5104251;28;20221;-61
2021/07/02 04:37:58;;;;;;;1.30;1.03;;;13.70;99.90;13.50;96758.00;;;;5086513;28;20203;-63
2021/07/02 04:40:48;;;;;;;1.20;1.10;;;13.80;99.90;13.50;96749.00;;;;5105706;28;20191;-62
2021/07/02 04:43:37;;;;;;;1.70;1.60;;;13.80;99.90;13.60;96755.00;;;;5103679;28;20206;-64
2021/07/02 04:46:27;;;;;;;2.23;1.17;;;13.80;99.90;13.60;96763.00;;;;5105121;28;20199;-63
2021/07/02 04:49:16;;;;;;;0.97;0.80;;;13.90;99.90;13.60;96757.00;;;;5102760;28;20199;-62
2021/07/02 04:52:06;;;;;;;1.20;1.10;;;13.90;99.90;13.80;96763.00;;;;5093903;28;20250;-63
2021/07/02 04:54:55;;;;;;;0.93;0.83;;;14.00;99.90;14.00;96759.00;;;;5104449;28;20226;-63
2021/07/02 04:57:44;;;;;;;1.30;1.20;;;14.10;99.90;14.30;96763.00;;;;5105857;28;20203;-60
2021/07/02 05:00:33;;;;;;;1.33;1.17;;;14.20;99.90;14.20;96761.00;;;;5105814;28;20203;-63
2021/07/02 05:03:23;;;;;;;1.33;1.13;;;14.30;99.90;14.20;96758.00;;;;5072408;28;20694;-62
2021/07/02 05:06:12;;;;;;;2.40;1.20;;;14.50;99.90;14.50;96764.00;;;;5104777;28;20202;-63
2021/07/02 05:09:01;;;;;;;1.40;1.30;;;14.50;99.90;14.50;96766.00;;;;5101774;28;20207;-61
2021/07/02 05:11:52;;;;;;;1.27;1.17;;;14.60;99.90;14.60;96771.00;;;;5070406;28;20226;-62
2021/07/02 05:14:41;;;;;;;2.13;1.20;;;14.70;99.90;14.60;96774.00;;;;5082608;28;20667;-61
2021/07/02 05:17:30;;;;;;;1.63;1.40;;;14.80;99.90;14.60;96769.00;;;;5085011;28;20283;-61
2021/07/02 05:20:21;;;;;;;1.53;0.83;;;14.90;99.90;14.70;96769.00;;;;5086632;28;20215;-64
2021/07/02 05:23:09;;;;;;;1.10;1.03;;;14.90;99.90;14.80;96770.00;;;;5087983;28;20227;-61
2021/07/02 05:25:59;;;;;;;1.57;1.00;;;15.00;99.90;14.80;96784.00;;;;5087248;28;20579;-62
2021/07/02 05:28:48;;;;;;;1.30;0.90;;;15.00;99.90;14.90;96779.00;;;;5086918;28;20203;-62
2021/07/02 05:31:37;;;;;;;0.90;0.90;;;15.10;99.90;15.00;96784.00;;;;5087703;28;20233;-61
2021/07/02 05:34:26;;;;;;;1.33;1.13;;;15.20;99.90;15.20;96783.00;;;;5088155;28;20661;-62
2021/07/02 05:37:16;;;;;;;1.17;1.03;;;15.20;99.90;15.40;96790.00;;;;5088582;28;20694;-64
2021/07/02 05:40:07;;;;;;;1.20;1.10;;;15.40;99.90;15.20;96787.00;;;;5088808;28;20211;-63
2021/07/02 05:42:56;;;;;;;0.80;0.80;;;15.40;99.90;15.20;96789.00;;;;5089385;28;20285;-63
2021/07/02 05:45:45;;;;;;;2.20;1.17;;;15.50;99.90;15.20;96793.00;;;;5089547;28;20199;-64
2021/07/02 05:48:34;;;;;;;1.20;1.10;;;15.50;99.90;15.30;96792.00;;;;5087945;28;20203;-62
2021/07/02 05:51:22;;;;;;;0.93;0.87;;;15.50;99.90;15.30;96797.00;;;;5089075;28;20226;-63
2021/07/02 05:54:13;;;;;;;1.30;1.20;;;15.50;99.90;15.50;96792.00;;;;5098788;28;20570;-63
2021/07/02 05:57:02;;;;;;;1.00;1.00;;;15.60;99.90;15.70;96787.00;;;;5100916;28;20203;-62
2021/07/02 05:59:50;;;;;;;0.80;0.80;;;15.70;99.90;15.80;96790.00;;;;5074945;28;20690;-61
2021/07/02 06:02:39;;;;;;;1.30;1.20;;;15.80;99.90;15.90;96781.00;;;;5101575;28;20223;-63
2021/07/02 06:05:28;;;;;;;2.97;1.43;;;15.90;99.90;16.10;96789.00;;;;5099189;28;20229;-63
2021/07/02 06:08:17;;;;;;;1.20;1.10;;;16.00;99.90;15.90;96784.00;;;;5101741;28;20206;-63
2021/07/02 06:11:07;;;;;;;2.57;1.20;;;16.10;99.90;15.90;96776.00;;;;5104615;28;20210;-63
2021/07/02 06:13:56;;;;;;;1.00;1.00;;;16.10;99.90;16.00;96773.00;;;;5103623;28;20692;-61
2021/07/02 06:16:45;;;;;;;1.13;1.00;;;16.20;99.90;16.10;96778.00;;;;5106610;28;20211;-63
2021/07/02 06:19:34;;;;;;;2.80;1.50;;;16.20;99.90;16.20;96783.00;;;;5107635;28;20756;-63
2021/07/02 06:22:23;;;;;;;2.30;1.50;;;16.30;99.90;16.30;96779.00;;;;5095953;28;20231;-62
2021/07/02 06:25:14;;;;;;;5.33;1.57;;;16.40;99.90;16.20;96792.00;;;;5107031;28;20207;-63
2021/07/02 06:28:04;;;;;;;2.53;1.53;;;16.40;99.90;16.30;96788.00;;;;5107491;28;20206;-63
2021/07/02 06:30:53;;;;;;;2.30;1.40;;;16.40;99.90;16.40;96795.00;;;;5105652;28;20203;-63
2021/07/02 06:33:42;;;;;;;2.50;1.50;;;16.50;99.90;16.40;96800.00;;;;5107265;28;20206;-63
2021/07/02 06:36:32;;;;;;;5.40;1.40;;;16.50;99.90;16.40;96797.00;;;;5107554;28;20215;-63
2021/07/02 06:39:21;;;;;;;4.30;2.30;;;17.60;99.90;16.20;96797.00;;;;5097799;28;20267;-62
2021/07/02 06:42:10;;;;;;;2.63;2.20;;;16.50;99.90;16.30;96798.00;;;;5108962;28;20233;-63
2021/07/02 06:45:00;;;;;;;3.70;1.30;;;16.50;99.90;16.40;96791.00;;;;5107514;28;20203;-62
2021/07/02 06:47:56;;;;;;;2.87;1.80;;;16.60;99.90;16.50;96797.00;;;;5098054;28;20209;-62
2021/07/02 06:50:46;;;;;;;3.97;1.37;;;16.60;99.90;16.70;96791.00;;;;5107566;28;20601;-63
2021/07/02 06:53:35;;;;;;;2.03;1.80;;;16.70;99.90;16.80;96791.00;;;;5105758;28;20203;-63
2021/07/02 06:56:24;;;;;;;1.80;1.50;;;16.80;99.90;16.90;96788.00;;;;5108437;28;20209;-61
2021/07/02 06:59:12;;;;;;;1.97;1.43;;;16.90;99.90;17.00;96798.00;;;;5106831;28;20564;-63
2021/07/02 07:02:03;;;;;;;3.10;1.40;;;17.00;99.90;17.00;96794.00;;;;5105727;28;20241;-62
2021/07/02 07:04:52;;;;;;;2.83;1.50;;;17.10;99.90;17.10;96794.00;;;;5098531;27;20215;-62
2021/07/02 07:07:41;;;;;;;2.97;1.80;;;17.20;99.90;17.20;96797.00;;;;5098026;28;20673;-60
2021/07/02 07:10:31;;;;;;;4.43;1.80;;;17.20;99.90;17.30;96800.00;;;;5097167;28;20244;-63
2021/07/02 07:13:22;;;;;;;2.10;1.70;;;17.30;99.90;17.10;96806.00;;;;5096966;28;20202;-64
2021/07/02 07:16:10;;;;;;;1.83;1.23;;;17.40;99.90;17.30;96797.00;;;;5105537;28;20677;-62
2021/07/02 07:19:01;;;;;;;1.93;1.53;;;17.40;99.90;17.30;96801.00;;;;5095528;28;20217;-63
2021/07/02 07:21:50;;;;;;;1.40;1.30;;;17.50;99.90;17.30;96797.00;;;;5106978;28;20226;-63
2021/07/02 07:24:39;;;;;;;3.07;1.40;;;17.50;99.90;17.40;96798.00;;;;5107042;28;20347;-61
2021/07/02 07:27:28;;;;;;;1.30;1.20;;;17.60;99.90;17.30;96786.00;;;;5106026;28;20211;-63
2021/07/02 07:30:18;;;;;;;1.40;1.30;;;17.60;99.90;17.50;96794.00;;;;5102176;28;20217;-63
2021/07/02 07:33:06;;;;;;;3.20;1.27;;;17.60;99.90;17.40;96791.00;;;;5104079;28;20218;-61
2021/07/02 07:35:57;;;;;;;1.63;1.23;;;17.60;99.90;17.50;96794.00;;;;5101165;28;20199;-61
2021/07/02 07:38:46;;;;;;;1.63;1.30;;;17.60;99.90;17.90;96798.00;;;;5099973;28;20669;-62
2021/07/02 07:41:34;;;;;;;3.63;1.70;;;17.80;99.90;18.20;96801.00;;;;5105369;28;20897;-62
2021/07/02 07:44:23;;;;;;;2.30;1.40;;;17.90;99.90;18.30;96810.00;;;;5100556;28;20248;-59
2021/07/02 07:47:13;;;;;;;1.80;1.70;;;18.10;99.90;18.40;96808.00;;;;5103509;28;20205;-61
2021/07/02 07:50:07;;;;;;;3.03;1.33;;;18.20;99.90;18.40;96810.00;;;;5103036;28;20226;-62
2021/07/02 07:52:59;;;;;;;1.93;1.60;;;18.30;99.90;18.50;96808.00;;;;5105430;28;20681;-60
2021/07/02 07:55:49;;;;;;;1.47;1.37;;;18.50;99.90;18.50;96799.00;;;;5098395;28;20206;-62
2021/07/02 07:58:38;;;;;;;1.90;1.70;;;18.50;99.90;18.70;96800.00;;;;5098885;28;20295;-61
2021/07/02 08:01:27;;;;;;;2.27;1.33;;;18.60;99.90;18.80;96795.00;;;;5105690;28;20474;-61
2021/07/02 08:04:16;;;;;;;3.50;1.77;;;18.70;99.90;18.90;96799.00;;;;5105310;28;20229;-61
2021/07/02 08:07:05;;;;;;;4.83;1.93;;;18.80;99.90;19.20;96789.00;;;;5106242;28;20202;-61
2021/07/02 08:09:55;;;;;;;4.90;1.60;;;19.00;99.90;19.30;96787.00;;;;5086335;28;20214;-62
2021/07/02 08:12:44;;;;;;;1.57;1.43;;;19.10;99.90;19.50;96789.00;;;;5096961;28;20697;-62
2021/07/02 08:15:33;;;;;;;1.97;1.73;;;19.20;99.90;19.70;96792.00;;;;5098492;28;20202;-63
2021/07/02 08:18:22;;;;;;;2.57;1.97;;;19.50;99.90;19.90;96789.00;;;;5105723;28;20209;-61
2021/07/02 08:21:11;;;;;;;2.57;2.20;;;19.60;99.90;19.70;96788.00;;;;5106845;28;20230;-63
2021/07/02 08:24:00;;;;;;;1.77;1.67;;;19.70;99.90;19.70;96793.00;;;;5094107;28;20596;-63
2021/07/02 08:26:56;;;;;;;1.83;1.60;;;19.80;99.90;19.90;96799.00;;;;5107492;28;21587;-63
2021/07/02 08:29:44;;;;;;;2.80;1.50;;;19.90;99.90;20.00;96797.00;;;;5106051;28;20211;-63
2021/07/02 08:32:32;;;;;;;1.93;1.60;;;19.90;99.90;19.60;96803.00;;;;5102577;28;20226;-62
2021/07/02 08:35:22;;;;;;;8.03;3.27;;;19.90;99.90;19.80;96801.00;;;;5102057;28;20293;-61
2021/07/02 08:38:14;;;;;;;5.53;1.83;;;19.90;99.90;20.20;96794.00;;;;5096067;28;20202;-63
2021/07/02 08:41:04;;;;;;;3.53;2.10;;;20.00;99.90;20.40;96799.00;;;;5089909;28;20190;-63
2021/07/02 08:43:54;;;;;;;3.70;1.73;;;20.20;99.90;20.70;96791.00;;;;5091407;28;20226;-62
2021/07/02 08:46:46;;;;;;;1.90;1.70;;;20.40;99.90;20.80;96797.00;;;;5102807;28;20195;-63
2021/07/02 08:49:46;;;;;;;6.07;3.67;;;20.60;99.90;21.20;96787.00;;;;5104890;28;20186;-63
2021/07/02 08:52:37;;;;;;;3.87;2.10;;;20.80;99.90;21.20;96779.00;;;;5104808;28;20253;-63
2021/07/02 08:55:26;;;;;;;3.67;2.30;;;21.00;99.90;21.80;96753.00;;;;5101775;28;20221;-63
2021/07/02 08:58:17;;;;;;;2.33;1.77;;;21.20;99.90;22.50;96763.00;;;;5096256;28;20209;-64
2021/07/02 09:01:08;;;;;;;2.70;1.87;;;21.60;99.90;22.90;96773.00;;;;5101734;28;20222;-63
2021/07/02 09:04:16;;;;;;;1.83;1.43;;;22.00;99.90;22.60;96785.00;;;;5100593;28;20237;-64
2021/07/02 09:07:09;;;;;;;3.53;2.07;;;22.30;98.20;22.70;96788.00;;;;5092058;28;20608;-64
2021/07/02 09:10:00;;;;;;;1.93;1.20;;;22.40;97.50;22.50;96797.00;;;;5101585;28;20215;-61
2021/07/02 09:12:54;;;;;;;1.30;0.97;;;22.50;95.40;22.50;96796.00;;;;5101985;28;20719;-63
2021/07/02 09:15:46;;;;;;;1.50;1.40;;;22.50;95.30;22.60;96793.00;;;;5102660;28;20662;-64
2021/07/02 09:18:37;;;;;;;4.90;2.07;;;22.60;95.40;21.90;96792.00;;;;5104098;28;20267;-63
2021/07/02 09:21:28;;;;;;;3.17;1.33;;;22.50;93.10;22.20;96798.00;;;;5095626;28;20218;-63
2021/07/02 09:24:39;;;;;;;3.00;1.50;;;22.40;93.30;21.90;96785.00;;;;5092247;28;20218;-63
2021/07/02 09:27:31;;;;;;;1.50;1.33;;;22.30;92.00;22.20;96789.00;;;;5100815;28;20216;-61
2021/07/02 09:30:25;;;;;;;2.27;2.07;;;22.20;93.00;21.50;96784.00;;;;5091656;28;20199;-63
2021/07/02 09:33:19;;;;;;;2.80;1.37;;;22.20;91.20;21.50;96781.00;;;;5103075;28;20210;-65
2021/07/02 09:36:17;;;;;;;2.60;1.90;;;22.10;89.10;21.50;96793.00;;;;5103390;28;20210;-66
2021/07/02 09:39:30;;;;;;;1.70;1.60;;;21.90;89.30;21.70;96803.00;;;;5101262;28;20206;-65
2021/07/02 09:42:27;;;;;;;5.20;1.83;;;21.90;89.90;21.40;96811.00;;;;5095944;28;20623;-64
2021/07/02 09:45:18;;;;;;;2.50;1.50;;;21.90;87.50;21.30;96800.00;;;;5102101;28;20615;-64
2021/07/02 09:48:09;;;;;;;1.70;1.60;;;21.80;86.10;20.90;96797.00;;;;5094961;28;20221;-67
2021/07/02 09:50:59;;;;;;;3.30;1.73;;;21.70;85.00;21.20;96798.00;;;;5103671;28;20207;-64
2021/07/02 09:54:05;;;;;;;1.33;1.00;;;21.60;85.90;21.50;96793.00;;;;5104411;28;20214;-65
2021/07/02 09:57:17;;;;;;;1.87;1.70;;;21.60;88.30;21.20;96797.00;;;;5104854;28;20205;-65
2021/07/02 10:00:09;;;;;;;3.23;2.30;;;21.60;85.00;21.20;96797.00;;;;5104401;28;20206;-65
2021/07/02 10:03:00;;;;;;;1.70;1.40;;;21.50;86.50;21.30;96802.00;;;;5103967;28;20226;-65
2021/07/02 10:05:53;;;;;;;2.00;1.27;;;21.50;86.00;21.20;96785.00;;;;5103691;28;20222;-65
2021/07/02 10:08:42;;;;;;;2.23;1.47;;;21.50;86.80;21.00;96790.00;;;;5106169;28;20206;-67
2021/07/02 10:11:35;;;;;;;2.00;1.50;;;21.50;87.30;20.80;96787.00;;;;5089123;28;20223;-63
2021/07/02 10:14:24;;;;;;;3.30;1.33;;;20.30;85.10;21.70;96794.00;;;;5096897;28;20260;-65
2021/07/02 10:17:14;;;;;;;2.43;1.80;;;21.40;87.50;22.30;96793.00;;;;5107131;28;20210;-65
2021/07/02 10:20:04;;;;;;;1.80;1.40;;;21.70;88.10;22.60;96790.00;;;;5101221;28;20222;-64
2021/07/02 10:22:57;;;;;;;1.83;1.50;;;22.00;88.20;22.90;96789.00;;;;5101221;28;20226;-64
2021/07/02 10:25:49;;;;;;;2.07;1.87;;;22.30;86.50;22.60;96787.00;;;;5104008;28;20234;-66
2021/07/02 10:28:41;;;;;;;2.23;1.87;;;22.50;79.30;23.20;96792.00;;;;5105914;28;20210;-65
2021/07/02 10:31:31;;;;;;;4.40;1.97;;;22.70;79.70;23.60;96782.00;;;;5104528;28;20230;-67
2021/07/02 10:34:20;;;;;;;2.03;1.63;;;23.00;78.30;23.70;96750.00;;;;5106725;28;20226;-65
2021/07/02 10:37:10;;;;;;;1.73;1.63;;;23.30;76.90;23.90;96780.00;;;;5107110;28;20210;-65
2021/07/02 10:40:00;;;;;;;1.73;1.57;;;23.50;75.30;23.70;96796.00;;;;5107822;28;20207;-64
2021/07/02 10:43:07;;;;;;;1.80;1.60;;;23.70;70.80;22.50;96776.00;;;;5107390;28;20230;-63
2021/07/02 10:46:15;;;;;;;2.27;1.50;;;23.40;66.00;22.60;96773.00;;;;5107457;28;20218;-63
2021/07/02 10:49:07;;;;;;;1.90;1.63;;;23.20;66.50;22.60;96782.00;;;;5107017;28;20198;-66
2021/07/02 10:51:58;;;;;;;1.70;1.60;;;23.00;67.20;22.90;96788.00;;;;5107272;28;20210;-66
2021/07/02 10:54:48;;;;;;;4.20;1.73;;;22.90;67.90;23.10;96785.00;;;;5106447;28;20245;-69
2021/07/02 10:57:53;;;;;;;2.60;1.87;;;23.00;69.00;22.90;96783.00;;;;5106694;28;20195;-67
2021/07/02 11:01:10;;;;;;;1.67;1.57;;;23.00;67.20;23.00;96782.00;;;;5106768;28;20206;-65
2021/07/02 11:04:34;;;;;;;1.50;1.40;;;23.10;66.90;22.80;96774.00;;;;5107445;28;20264;-65
2021/07/02 11:07:42;;;;;;;1.77;1.67;;;23.00;67.90;23.20;96778.00;;;;5106069;28;20210;-65
2021/07/02 11:10:57;;;;;;;1.83;1.60;;;23.10;68.60;23.30;96776.00;;;;5097834;28;20857;-65
2021/07/02 11:14:08;;;;;;;2.47;2.00;;;23.10;68.00;23.30;96776.00;;;;5102370;28;20222;-67
2021/07/02 11:17:21;;;;;;;2.57;2.10;;;23.20;66.90;23.80;96773.00;;;;5102926;28;20205;-68
2021/07/02 11:20:31;;;;;;;3.57;1.83;;;23.40;67.00;23.60;96775.00;;;;5102859;28;20210;-67
2021/07/02 11:23:23;;;;;;;2.30;1.80;;;23.50;65.20;23.40;96767.00;;;;5106078;28;20895;-66
2021/07/02 11:26:14;;;;;;;2.33;2.03;;;23.60;64.70;24.20;96755.00;;;;5104019;28;20227;-66
2021/07/02 11:29:05;;;;;;;2.27;2.07;;;23.70;65.50;24.80;96742.00;;;;5094656;28;20677;-65
2021/07/02 11:31:54;;;;;;;1.73;1.63;;;24.10;63.70;25.80;96703.00;;;;5105066;28;20218;-64
2021/07/02 11:35:19;;;;;;;3.57;1.97;;;24.70;62.80;26.50;96701.00;;;;5106383;28;20243;-69
2021/07/02 11:38:15;;;;;;;1.87;1.70;;;25.40;62.20;27.00;96703.00;;;;5105538;28;20586;-66
2021/07/02 11:41:08;;;;;;;3.07;1.93;;;26.10;60.50;27.10;96726.00;;;;5103092;28;20234;-64
2021/07/02 11:44:02;;;;;;;2.40;2.20;;;26.60;57.50;26.90;96723.00;;;;5106900;28;20850;-63
2021/07/02 11:46:57;;;;;;;4.23;2.43;;;26.60;58.00;26.40;96761.00;;;;5094047;28;20301;-61
2021/07/02 11:49:49;;;;;;;2.30;2.10;;;26.50;57.70;25.20;96699.00;;;;5106213;28;20352;-61
2021/07/02 11:52:38;;;;;;;2.70;1.77;;;26.00;56.60;25.70;96723.00;;;;5104680;28;20239;-62
2021/07/02 11:55:28;;;;;;;2.27;2.07;;;26.00;57.60;24.70;96731.00;;;;5105902;28;20207;-62
2021/07/02 11:58:17;;;;;;;2.50;2.30;;;25.80;55.90;26.00;96730.00;;;;5106535;28;20666;-62
2021/07/02 12:01:09;;;;;;;1.90;1.80;;;25.80;56.60;26.30;96704.00;;;;5106000;28;20231;-62
2021/07/02 12:04:01;;;;;;;6.33;2.30;;;26.00;57.80;25.70;96713.00;;;;5104686;28;20616;-62
2021/07/02 12:06:52;;;;;;;2.10;1.90;;;26.00;56.70;24.70;96726.00;;;;5102038;28;20204;-64
2021/07/02 12:09:42;;;;;;;1.97;1.80;;;25.80;55.50;24.70;96723.00;;;;5104054;28;20674;-61
2021/07/02 12:12:32;;;;;;;3.37;1.90;;;25.60;57.10;24.20;96723.00;;;;5093945;28;20223;-63
2021/07/02 12:15:27;;;;;;;2.03;1.83;;;25.40;56.30;25.90;96645.00;;;;5105381;28;20384;-60
2021/07/02 12:18:26;;;;;;;3.33;2.13;;;25.50;56.80;26.90;96701.00;;;;5102831;28;20213;-62
2021/07/02 12:21:15;;;;;;;2.27;2.03;;;26.00;56.30;26.70;96709.00;;;;5103733;28;20235;-62
2021/07/02 12:24:07;;;;;;;3.47;2.50;;;26.30;56.80;26.30;96727.00;;;;5101083;28;20219;-62
2021/07/02 12:26:59;;;;;;;3.97;1.90;;;26.30;55.40;25.90;96714.00;;;;5104802;28;20704;-63
2021/07/02 12:29:54;;;;;;;2.00;1.80;;;26.20;55.80;25.50;96728.00;;;;5103653;28;20204;-62
2021/07/02 12:32:43;;;;;;;2.83;2.43;;;26.00;54.20;25.50;96719.00;;;;5105143;28;20222;-61
2021/07/02 12:35:32;;;;;;;3.33;1.97;;;25.80;54.40;25.10;96744.00;;;;5104261;28;20213;-62
2021/07/02 12:38:21;;;;;;;2.33;2.13;;;25.60;54.90;25.10;96743.00;;;;5105667;28;20592;-62
2021/07/02 12:41:10;;;;;;;5.07;1.97;;;25.40;55.80;24.90;96746.00;;;;5097449;28;20233;-63